sensor_id;sensor_type;location;lat;lon;timestamp;pressure;altitude;pressure_sealevel;temperature;humidity
51849;BME280;38952;51.090;-1.832;2023-07-09T00:00:13;100547.88;;;14.74;100.00
51849;BME280;38952;51.090;-1.832;2023-07-09T00:02:39;100538.84;;;14.68;100.00
51849;BME280;38952;51.090;-1.832;2023-07-09T00:05:16;100545.44;;;14.67;100.00
51849;BME280;38952;51.090;-1.832;2023-07-09T00:07:43;100553.69;;;14.67;100.00
51849;BME280;38952;51.090;-1.832;2023-07-09T00:10:18;100556.75;;;14.65;100.00
51849;BME280;38952;51.090;-1.832;2023-07-09T00:12:47;100540.31;;;14.55;100.00
51849;BME280;38952;51.090;-1.832;2023-07-09T00:15:14;100548.28;;;14.57;100.00
51849;BME280;38952;51.090;-1.832;2023-07-09T00:17:43;100538.44;;;14.51;100.00
51849;BME280;38952;51.090;-1.832;2023-07-09T00:20:18;100562.84;;;14.62;100.00
51849;BME280;38952;51.090;-1.832;2023-07-09T00:22:44;100557.34;;;14.62;100.00
51849;BME280;38952;51.090;-1.832;2023-07-09T00:25:19;100561.44;;;14.65;100.00
51849;BME280;38952;51.090;-1.832;2023-07-09T00:27:45;100551.00;;;14.62;100.00
51849;BME280;38952;51.090;-1.832;2023-07-09T00:30:23;100557.06;;;14.59;100.00
51849;BME280;38952;51.090;-1.832;2023-07-09T00:32:49;100556.00;;;14.55;100.00
51849;BME280;38952;51.090;-1.832;2023-07-09T00:35:17;100558.22;;;14.53;100.00
51849;BME280;38952;51.090;-1.832;2023-07-09T00:37:46;100560.44;;;14.51;100.00
51849;BME280;38952;51.090;-1.832;2023-07-09T00:40:19;100554.16;;;14.45;100.00
51849;BME280;38952;51.090;-1.832;2023-07-09T00:42:50;100551.19;;;14.41;100.00
51849;BME280;38952;51.090;-1.832;2023-07-09T00:45:22;100553.44;;;14.34;100.00
51849;BME280;38952;51.090;-1.832;2023-07-09T00:52:57;100549.69;;;14.20;100.00
51849;BME280;38952;51.090;-1.832;2023-07-09T00:55:26;100552.44;;;14.20;100.00
51849;BME280;38952;51.090;-1.832;2023-07-09T00:57:55;100539.84;;;14.13;100.00
51849;BME280;38952;51.090;-1.832;2023-07-09T01:00:27;100545.34;;;14.13;100.00
51849;BME280;38952;51.090;-1.832;2023-07-09T01:02:53;100556.91;;;14.10;100.00
51849;BME280;38952;51.090;-1.832;2023-07-09T01:05:19;100557.47;;;14.07;100.00
51849;BME280;38952;51.090;-1.832;2023-07-09T01:07:45;100550.94;;;14.03;100.00
51849;BME280;38952;51.090;-1.832;2023-07-09T01:10:13;100547.97;;;13.94;100.00
51849;BME280;38952;51.090;-1.832;2023-07-09T01:12:39;100553.19;;;13.91;100.00
51849;BME280;38952;51.090;-1.832;2023-07-09T01:15:05;100546.09;;;13.85;100.00
51849;BME280;38952;51.090;-1.832;2023-07-09T01:17:33;100558.47;;;13.87;100.00
51849;BME280;38952;51.090;-1.832;2023-07-09T01:19:58;100558.13;;;13.94;100.00
51849;BME280;38952;51.090;-1.832;2023-07-09T01:22:24;100551.53;;;13.95;100.00
51849;BME280;38952;51.090;-1.832;2023-07-09T01:27:27;100545.81;;;13.86;100.00
51849;BME280;38952;51.090;-1.832;2023-07-09T01:29:55;100563.41;;;13.85;100.00
51849;BME280;38952;51.090;-1.832;2023-07-09T01:32:21;100565.41;;;13.74;100.00
51849;BME280;38952;51.090;-1.832;2023-07-09T01:34:51;100570.69;;;13.60;100.00
51849;BME280;38952;51.090;-1.832;2023-07-09T01:37:20;100576.47;;;13.59;100.00
51849;BME280;38952;51.090;-1.832;2023-07-09T01:39:50;100570.19;;;13.53;100.00
51849;BME280;38952;51.090;-1.832;2023-07-09T01:42:17;100575.44;;;13.50;100.00
51849;BME280;38952;51.090;-1.832;2023-07-09T01:44:44;100572.41;;;13.51;100.00
51849;BME280;38952;51.090;-1.832;2023-07-09T01:47:13;100569.13;;;13.49;100.00
51849;BME280;38952;51.090;-1.832;2023-07-09T01:49:39;100562.78;;;13.49;100.00
51849;BME280;38952;51.090;-1.832;2023-07-09T01:52:05;100566.09;;;13.51;100.00
51849;BME280;38952;51.090;-1.832;2023-07-09T01:54:33;100569.38;;;13.53;100.00
51849;BME280;38952;51.090;-1.832;2023-07-09T01:59:39;100564.13;;;13.56;100.00
51849;BME280;38952;51.090;-1.832;2023-07-09T02:02:09;100550.66;;;13.55;100.00
51849;BME280;38952;51.090;-1.832;2023-07-09T02:04:34;100550.94;;;13.58;100.00
51849;BME280;38952;51.090;-1.832;2023-07-09T02:07:00;100556.16;;;13.55;100.00
51849;BME280;38952;51.090;-1.832;2023-07-09T02:09:25;100558.38;;;13.53;100.00
51849;BME280;38952;51.090;-1.832;2023-07-09T02:11:53;100566.63;;;13.48;100.00
51849;BME280;38952;51.090;-1.832;2023-07-09T02:14:18;100556.78;;;13.41;100.00
51849;BME280;38952;51.090;-1.832;2023-07-09T02:16:45;100555.69;;;13.37;100.00
51849;BME280;38952;51.090;-1.832;2023-07-09T02:19:10;100562.31;;;13.36;100.00
51849;BME280;38952;51.090;-1.832;2023-07-09T02:21:36;100555.13;;;13.30;100.00
51849;BME280;38952;51.090;-1.832;2023-07-09T02:24:01;100565.31;;;13.30;100.00
51849;BME280;38952;51.090;-1.832;2023-07-09T02:26:27;100566.44;;;13.23;100.00
51849;BME280;38952;51.090;-1.832;2023-07-09T02:28:52;100570.03;;;13.19;100.00
51849;BME280;38952;51.090;-1.832;2023-07-09T02:31:18;100568.94;;;13.15;100.00
51849;BME280;38952;51.090;-1.832;2023-07-09T02:33:44;100569.78;;;13.10;100.00
51849;BME280;38952;51.090;-1.832;2023-07-09T02:36:10;100551.44;;;12.90;100.00
51849;BME280;38952;51.090;-1.832;2023-07-09T02:38:36;100569.25;;;12.98;100.00
51849;BME280;38952;51.090;-1.832;2023-07-09T02:41:02;100567.34;;;12.93;100.00
51849;BME280;38952;51.090;-1.832;2023-07-09T02:43:27;100570.13;;;12.88;100.00
51849;BME280;38952;51.090;-1.832;2023-07-09T02:45:53;100574.50;;;12.89;100.00
51849;BME280;38952;51.090;-1.832;2023-07-09T02:48:18;100579.44;;;12.87;100.00
51849;BME280;38952;51.090;-1.832;2023-07-09T02:50:43;100570.13;;;12.83;100.00
51849;BME280;38952;51.090;-1.832;2023-07-09T02:53:09;100575.06;;;12.81;100.00
51849;BME280;38952;51.090;-1.832;2023-07-09T02:55:34;100571.78;;;12.79;100.00
51849;BME280;38952;51.090;-1.832;2023-07-09T02:58:00;100564.66;;;12.78;100.00
51849;BME280;38952;51.090;-1.832;2023-07-09T03:00:26;100568.47;;;12.82;100.00
51849;BME280;38952;51.090;-1.832;2023-07-09T03:02:51;100578.34;;;12.83;100.00
51849;BME280;38952;51.090;-1.832;2023-07-09T03:05:16;100573.94;;;12.82;100.00
51849;BME280;38952;51.090;-1.832;2023-07-09T03:07:42;100572.88;;;12.83;100.00
51849;BME280;38952;51.090;-1.832;2023-07-09T03:10:07;100579.44;;;12.87;100.00
51849;BME280;38952;51.090;-1.832;2023-07-09T03:12:33;100566.00;;;12.85;100.00
51849;BME280;38952;51.090;-1.832;2023-07-09T03:14:58;100564.63;;;12.88;100.00
51849;BME280;38952;51.090;-1.832;2023-07-09T03:17:24;100567.09;;;12.89;100.00
51849;BME280;38952;51.090;-1.832;2023-07-09T03:19:49;100559.97;;;12.88;100.00
51849;BME280;38952;51.090;-1.832;2023-07-09T03:22:17;100555.84;;;12.91;100.00
51849;BME280;38952;51.090;-1.832;2023-07-09T03:24:43;100556.38;;;12.93;100.00
51849;BME280;38952;51.090;-1.832;2023-07-09T03:27:08;100556.38;;;12.93;100.00
51849;BME280;38952;51.090;-1.832;2023-07-09T03:29:35;100558.03;;;12.94;100.00
51849;BME280;38952;51.090;-1.832;2023-07-09T03:32:01;100555.81;;;12.96;100.00
51849;BME280;38952;51.090;-1.832;2023-07-09T03:34:26;100558.00;;;12.99;100.00
51849;BME280;38952;51.090;-1.832;2023-07-09T03:36:54;100556.91;;;13.05;100.00
51849;BME280;38952;51.090;-1.832;2023-07-09T03:39:21;100556.34;;;13.08;100.00
51849;BME280;38952;51.090;-1.832;2023-07-09T03:41:46;100575.00;;;13.12;100.00
51849;BME280;38952;51.090;-1.832;2023-07-09T03:44:18;100579.13;;;13.14;100.00
51849;BME280;38952;51.090;-1.832;2023-07-09T03:46:43;100570.31;;;13.17;100.00
51849;BME280;38952;51.090;-1.832;2023-07-09T03:49:08;100580.44;;;13.22;100.00
51849;BME280;38952;51.090;-1.832;2023-07-09T03:51:37;100572.75;;;13.24;100.00
51849;BME280;38952;51.090;-1.832;2023-07-09T03:54:02;100570.56;;;13.26;100.00
51849;BME280;38952;51.090;-1.832;2023-07-09T03:56:28;100577.09;;;13.30;100.00
51849;BME280;38952;51.090;-1.832;2023-07-09T03:58:53;100582.88;;;13.34;100.00
51849;BME280;38952;51.090;-1.832;2023-07-09T04:01:20;100579.31;;;13.33;100.00
51849;BME280;38952;51.090;-1.832;2023-07-09T04:03:45;100587.03;;;13.36;100.00
51849;BME280;38952;51.090;-1.832;2023-07-09T04:06:11;100588.38;;;13.39;100.00
51849;BME280;38952;51.090;-1.832;2023-07-09T04:08:36;100590.31;;;13.38;100.00
51849;BME280;38952;51.090;-1.832;2023-07-09T04:11:02;100599.09;;;13.40;100.00
51849;BME280;38952;51.090;-1.832;2023-07-09T04:13:28;100598.53;;;13.38;100.00
51849;BME280;38952;51.090;-1.832;2023-07-09T04:16:03;100613.09;;;13.39;100.00
51849;BME280;38952;51.090;-1.832;2023-07-09T04:18:28;100614.50;;;13.36;100.00
51849;BME280;38952;51.090;-1.832;2023-07-09T04:20:54;100617.53;;;13.35;100.00
51849;BME280;38952;51.090;-1.832;2023-07-09T04:23:19;100621.31;;;13.34;100.00
51849;BME280;38952;51.090;-1.832;2023-07-09T04:25:45;100611.72;;;13.31;100.00
51849;BME280;38952;51.090;-1.832;2023-07-09T04:28:10;100606.22;;;13.31;100.00
51849;BME280;38952;51.090;-1.832;2023-07-09T04:30:38;100610.34;;;13.34;100.00
51849;BME280;38952;51.090;-1.832;2023-07-09T04:33:05;100602.94;;;13.39;100.00
51849;BME280;38952;51.090;-1.832;2023-07-09T04:35:30;100610.06;;;13.46;100.00
51849;BME280;38952;51.090;-1.832;2023-07-09T04:37:56;100625.97;;;13.54;100.00
51849;BME280;38952;51.090;-1.832;2023-07-09T04:40:21;100616.06;;;13.53;100.00
51849;BME280;38952;51.090;-1.832;2023-07-09T04:42:46;100625.34;;;13.62;100.00
51849;BME280;38952;51.090;-1.832;2023-07-09T04:45:12;100622.03;;;13.65;100.00
51849;BME280;38952;51.090;-1.832;2023-07-09T04:47:38;100622.59;;;13.67;100.00
51849;BME280;38952;51.090;-1.832;2023-07-09T04:50:05;100613.78;;;13.70;100.00
51849;BME280;38952;51.090;-1.832;2023-07-09T04:52:31;100616.50;;;13.75;100.00
51849;BME280;38952;51.090;-1.832;2023-07-09T04:54:59;100607.16;;;13.76;100.00
51849;BME280;38952;51.090;-1.832;2023-07-09T04:57:27;100613.22;;;13.78;100.00
51849;BME280;38952;51.090;-1.832;2023-07-09T04:59:52;100609.63;;;13.78;100.00
51849;BME280;38952;51.090;-1.832;2023-07-09T05:02:17;100620.31;;;13.85;100.00
51849;BME280;38952;51.090;-1.832;2023-07-09T05:04:43;100621.97;;;13.86;100.00
51849;BME280;38952;51.090;-1.832;2023-07-09T05:07:08;100617.56;;;13.85;100.00
51849;BME280;38952;51.090;-1.832;2023-07-09T05:09:34;100619.75;;;13.83;100.00
51849;BME280;38952;51.090;-1.832;2023-07-09T05:11:59;100613.16;;;13.84;100.00
51849;BME280;38952;51.090;-1.832;2023-07-09T05:14:29;100609.84;;;13.92;100.00
51849;BME280;38952;51.090;-1.832;2023-07-09T05:16:54;100611.97;;;14.00;100.00
51849;BME280;38952;51.090;-1.832;2023-07-09T05:19:19;100616.34;;;14.06;100.00
51849;BME280;38952;51.090;-1.832;2023-07-09T05:21:47;100619.03;;;14.17;100.00
51849;BME280;38952;51.090;-1.832;2023-07-09T05:24:13;100606.28;;;14.31;100.00
51849;BME280;38952;51.090;-1.832;2023-07-09T05:26:38;100616.06;;;14.42;100.00
51849;BME280;38952;51.090;-1.832;2023-07-09T05:29:04;100626.50;;;14.45;100.00
51849;BME280;38952;51.090;-1.832;2023-07-09T05:31:31;100643.84;;;14.46;100.00
51849;BME280;38952;51.090;-1.832;2023-07-09T05:33:59;100655.50;;;14.32;100.00
51849;BME280;38952;51.090;-1.832;2023-07-09T05:36:26;100664.88;;;14.26;100.00
51849;BME280;38952;51.090;-1.832;2023-07-09T05:38:52;100669.88;;;14.19;100.00
51849;BME280;38952;51.090;-1.832;2023-07-09T05:41:17;100664.69;;;14.12;100.00
51849;BME280;38952;51.090;-1.832;2023-07-09T05:43:44;100669.13;;;14.08;100.00
51849;BME280;38952;51.090;-1.832;2023-07-09T05:46:10;100663.91;;;14.02;100.00
51849;BME280;38952;51.090;-1.832;2023-07-09T05:48:35;100669.75;;;13.95;100.00
51849;BME280;38952;51.090;-1.832;2023-07-09T05:51:01;100669.19;;;13.93;100.00
51849;BME280;38952;51.090;-1.832;2023-07-09T05:53:26;100651.63;;;13.89;100.00
51849;BME280;38952;51.090;-1.832;2023-07-09T05:55:55;100643.91;;;13.91;100.00
51849;BME280;38952;51.090;-1.832;2023-07-09T05:58:22;100645.53;;;13.97;100.00
51849;BME280;38952;51.090;-1.832;2023-07-09T06:00:52;100647.13;;;14.08;100.00
51849;BME280;38952;51.090;-1.832;2023-07-09T06:03:19;100651.19;;;14.21;100.00
51849;BME280;38952;51.090;-1.832;2023-07-09T06:05:45;100637.06;;;14.33;100.00
51849;BME280;38952;51.090;-1.832;2023-07-09T06:08:10;100637.47;;;14.51;100.00
51849;BME280;38952;51.090;-1.832;2023-07-09T06:10:38;100639.56;;;14.69;100.00
51849;BME280;38952;51.090;-1.832;2023-07-09T06:13:06;100628.47;;;14.79;100.00
51849;BME280;38952;51.090;-1.832;2023-07-09T06:15:31;100637.16;;;14.92;100.00
51849;BME280;38952;51.090;-1.832;2023-07-09T06:17:57;100631.31;;;14.98;100.00
51849;BME280;38952;51.090;-1.832;2023-07-09T06:20:22;100641.50;;;14.98;100.00
51849;BME280;38952;51.090;-1.832;2023-07-09T06:22:50;100631.94;;;14.90;100.00
51849;BME280;38952;51.090;-1.832;2023-07-09T06:25:16;100643.00;;;14.85;100.00
51849;BME280;38952;51.090;-1.832;2023-07-09T06:27:41;100660.94;;;14.82;100.00
51849;BME280;38952;51.090;-1.832;2023-07-09T06:30:07;100664.84;;;14.76;100.00
51849;BME280;38952;51.090;-1.832;2023-07-09T06:32:32;100658.28;;;14.67;100.00
51849;BME280;38952;51.090;-1.832;2023-07-09T06:34:58;100655.31;;;14.63;100.00
51849;BME280;38952;51.090;-1.832;2023-07-09T06:37:23;100659.38;;;14.71;100.00
51849;BME280;38952;51.090;-1.832;2023-07-09T06:39:49;100661.00;;;14.72;100.00
51849;BME280;38952;51.090;-1.832;2023-07-09T06:42:16;100671.44;;;14.75;100.00
51849;BME280;38952;51.090;-1.832;2023-07-09T06:44:42;100670.09;;;14.73;100.00
51849;BME280;38952;51.090;-1.832;2023-07-09T06:47:07;100684.66;;;14.73;100.00
51849;BME280;38952;51.090;-1.832;2023-07-09T06:49:34;100689.34;;;14.73;100.00
51849;BME280;38952;51.090;-1.832;2023-07-09T06:52:05;100713.34;;;14.67;100.00
51849;BME280;38952;51.090;-1.832;2023-07-09T06:54:31;100701.25;;;14.63;100.00
51849;BME280;38952;51.090;-1.832;2023-07-09T06:56:56;100727.16;;;14.62;100.00
51849;BME280;38952;51.090;-1.832;2023-07-09T06:59:25;100708.75;;;14.52;100.00
51849;BME280;38952;51.090;-1.832;2023-07-09T07:01:58;100722.72;;;14.56;100.00
51849;BME280;38952;51.090;-1.832;2023-07-09T07:04:30;100720.03;;;14.51;100.00
51849;BME280;38952;51.090;-1.832;2023-07-09T07:07:14;100712.88;;;14.49;100.00
51849;BME280;38952;51.090;-1.832;2023-07-09T07:09:41;100704.91;;;14.48;100.00
51849;BME280;38952;51.090;-1.832;2023-07-09T07:12:07;100694.75;;;14.48;100.00
51849;BME280;38952;51.090;-1.832;2023-07-09T07:14:32;100686.94;;;14.61;100.00
51849;BME280;38952;51.090;-1.832;2023-07-09T07:16:58;100691.22;;;14.77;100.00
51849;BME280;38952;51.090;-1.832;2023-07-09T07:19:23;100684.53;;;14.89;100.00
51849;BME280;38952;51.090;-1.832;2023-07-09T07:21:49;100665.94;;;15.05;100.00
51849;BME280;38952;51.090;-1.832;2023-07-09T07:24:17;100653.25;;;15.33;100.00
51849;BME280;38952;51.090;-1.832;2023-07-09T07:26:42;100655.25;;;15.51;100.00
51849;BME280;38952;51.090;-1.832;2023-07-09T07:29:08;100663.81;;;15.74;100.00
51849;BME280;38952;51.090;-1.832;2023-07-09T07:31:33;100675.72;;;15.94;100.00
51849;BME280;38952;51.090;-1.832;2023-07-09T07:33:58;100667.59;;;16.02;100.00
51849;BME280;38952;51.090;-1.832;2023-07-09T07:36:25;100666.66;;;16.12;100.00
51849;BME280;38952;51.090;-1.832;2023-07-09T07:38:50;100667.09;;;16.19;100.00
51849;BME280;38952;51.090;-1.832;2023-07-09T07:41:15;100681.78;;;16.34;100.00
51849;BME280;38952;51.090;-1.832;2023-07-09T07:43:41;100678.19;;;16.52;100.00
51849;BME280;38952;51.090;-1.832;2023-07-09T07:46:07;100684.22;;;16.73;100.00
51849;BME280;38952;51.090;-1.832;2023-07-09T07:48:33;100669.78;;;16.96;100.00
51849;BME280;38952;51.090;-1.832;2023-07-09T07:50:59;100679.56;;;17.21;100.00
51849;BME280;38952;51.090;-1.832;2023-07-09T07:53:26;100682.16;;;17.45;100.00
51849;BME280;38952;51.090;-1.832;2023-07-09T07:55:54;100682.03;;;17.78;100.00
51849;BME280;38952;51.090;-1.832;2023-07-09T07:58:20;100685.19;;;18.13;99.73
51849;BME280;38952;51.090;-1.832;2023-07-09T08:00:46;100690.72;;;18.49;98.41
51849;BME280;38952;51.090;-1.832;2023-07-09T08:03:11;100683.88;;;18.70;96.94
51849;BME280;38952;51.090;-1.832;2023-07-09T08:05:36;100688.53;;;18.83;96.02
51849;BME280;38952;51.090;-1.832;2023-07-09T08:08:02;100681.34;;;18.82;95.95
51849;BME280;38952;51.090;-1.832;2023-07-09T08:10:28;100685.78;;;18.83;96.17
51849;BME280;38952;51.090;-1.832;2023-07-09T08:12:53;100687.72;;;18.82;95.68
51849;BME280;38952;51.090;-1.832;2023-07-09T08:15:22;100689.22;;;19.11;95.14
51849;BME280;38952;51.090;-1.832;2023-07-09T08:17:47;100691.00;;;19.39;93.36
51849;BME280;38952;51.090;-1.832;2023-07-09T08:20:13;100687.69;;;19.68;92.44
51849;BME280;38952;51.090;-1.832;2023-07-09T08:22:38;100689.88;;;19.80;90.59
51849;BME280;38952;51.090;-1.832;2023-07-09T08:25:04;100694.44;;;19.76;90.92
51849;BME280;38952;51.090;-1.832;2023-07-09T08:27:30;100689.44;;;19.55;90.91
51849;BME280;38952;51.090;-1.832;2023-07-09T08:29:55;100692.81;;;19.43;91.99
51849;BME280;38952;51.090;-1.832;2023-07-09T08:32:20;100695.13;;;19.50;91.79
51849;BME280;38952;51.090;-1.832;2023-07-09T08:34:46;100701.47;;;19.42;90.99
51849;BME280;38952;51.090;-1.832;2023-07-09T08:37:11;100703.00;;;19.25;90.57
51849;BME280;38952;51.090;-1.832;2023-07-09T08:39:37;100696.25;;;19.09;89.24
51849;BME280;38952;51.090;-1.832;2023-07-09T08:42:04;100709.84;;;19.19;88.84
51849;BME280;38952;51.090;-1.832;2023-07-09T08:47:25;100704.34;;;19.05;86.63
51849;BME280;38952;51.090;-1.832;2023-07-09T08:49:57;100698.75;;;19.19;86.58
51849;BME280;38952;51.090;-1.832;2023-07-09T08:52:26;100703.63;;;19.85;85.37
51849;BME280;38952;51.090;-1.832;2023-07-09T08:54:58;100705.53;;;20.86;82.76
51849;BME280;38952;51.090;-1.832;2023-07-09T08:57:29;100704.22;;;21.57;79.54
51849;BME280;38952;51.090;-1.832;2023-07-09T09:00:02;100709.59;;;21.62;78.58
51849;BME280;38952;51.090;-1.832;2023-07-09T09:02:41;100716.69;;;21.33;78.06
51849;BME280;38952;51.090;-1.832;2023-07-09T09:05:11;100716.28;;;20.96;75.56
51849;BME280;38952;51.090;-1.832;2023-07-09T09:07:43;100712.06;;;20.46;74.76
51849;BME280;38952;51.090;-1.832;2023-07-09T09:10:48;100704.50;;;20.29;75.77
51849;BME280;38952;51.090;-1.832;2023-07-09T09:13:24;100705.03;;;20.49;75.56
51849;BME280;38952;51.090;-1.832;2023-07-09T09:15:50;100706.00;;;20.44;75.08
51849;BME280;38952;51.090;-1.832;2023-07-09T09:18:25;100704.69;;;20.42;75.15
51849;BME280;38952;51.090;-1.832;2023-07-09T09:24:14;100704.00;;;19.69;73.14
51849;BME280;38952;51.090;-1.832;2023-07-09T09:26:43;100709.66;;;19.47;74.68
51849;BME280;38952;51.090;-1.832;2023-07-09T09:29:14;100700.00;;;19.44;75.43
51849;BME280;38952;51.090;-1.832;2023-07-09T09:31:41;100707.72;;;19.56;75.65
51849;BME280;38952;51.090;-1.832;2023-07-09T09:34:20;100697.91;;;19.50;75.92
51849;BME280;38952;51.090;-1.832;2023-07-09T09:36:46;100713.03;;;19.35;75.44
51849;BME280;38952;51.090;-1.832;2023-07-09T09:39:12;100702.28;;;19.11;75.94
51849;BME280;38952;51.090;-1.832;2023-07-09T09:41:38;100707.19;;;19.14;76.67
51849;BME280;38952;51.090;-1.832;2023-07-09T09:44:04;100712.19;;;19.34;76.85
51849;BME280;38952;51.090;-1.832;2023-07-09T09:46:32;100719.25;;;19.41;73.89
51849;BME280;38952;51.090;-1.832;2023-07-09T09:49:02;100723.28;;;19.34;73.04
51849;BME280;38952;51.090;-1.832;2023-07-09T09:51:28;100714.47;;;19.32;73.03
51849;BME280;38952;51.090;-1.832;2023-07-09T09:53:59;100717.44;;;19.45;72.41
51849;BME280;38952;51.090;-1.832;2023-07-09T09:58:55;100714.94;;;20.15;71.54
51849;BME280;38952;51.090;-1.832;2023-07-09T10:01:29;100728.50;;;20.25;70.22
51849;BME280;38952;51.090;-1.832;2023-07-09T10:03:57;100724.63;;;20.35;69.93
51849;BME280;38952;51.090;-1.832;2023-07-09T10:06:36;100723.97;;;20.47;70.19
51849;BME280;38952;51.090;-1.832;2023-07-09T10:14:49;100716.22;;;21.78;65.68
51849;BME280;38952;51.090;-1.832;2023-07-09T10:20:49;100722.94;;;24.20;57.35
51849;BME280;38952;51.090;-1.832;2023-07-09T10:23:26;100715.00;;;23.61;58.82
51849;BME280;38952;51.090;-1.832;2023-07-09T10:34:32;100727.84;;;24.77;56.79
51849;BME280;38952;51.090;-1.832;2023-07-09T10:40:04;100730.34;;;26.57;52.00
51849;BME280;38952;51.090;-1.832;2023-07-09T10:42:55;100714.22;;;27.79;48.13
51849;BME280;38952;51.090;-1.832;2023-07-09T10:45:31;100722.22;;;28.30;44.35
51849;BME280;38952;51.090;-1.832;2023-07-09T10:48:02;100717.50;;;29.02;43.34
51849;BME280;38952;51.090;-1.832;2023-07-09T10:50:36;100721.38;;;29.73;42.40
51849;BME280;38952;51.090;-1.832;2023-07-09T10:53:18;100722.38;;;29.47;39.76
51849;BME280;38952;51.090;-1.832;2023-07-09T10:58:47;100722.47;;;29.16;42.65
51849;BME280;38952;51.090;-1.832;2023-07-09T11:01:15;100729.50;;;29.82;40.43
51849;BME280;38952;51.090;-1.832;2023-07-09T11:03:50;100726.22;;;29.72;39.83
51849;BME280;38952;51.090;-1.832;2023-07-09T11:06:26;100719.25;;;30.04;39.22
51849;BME280;38952;51.090;-1.832;2023-07-09T11:08:59;100723.31;;;30.14;40.17
51849;BME280;38952;51.090;-1.832;2023-07-09T11:11:37;100705.03;;;30.56;39.30
51849;BME280;38952;51.090;-1.832;2023-07-09T11:14:36;100713.72;;;29.70;39.08
51849;BME280;38952;51.090;-1.832;2023-07-09T11:17:22;100700.22;;;29.41;39.33
51849;BME280;38952;51.090;-1.832;2023-07-09T11:20:07;100707.28;;;30.25;38.65
51849;BME280;38952;51.090;-1.832;2023-07-09T11:22:37;100725.97;;;30.48;36.91
51849;BME280;38952;51.090;-1.832;2023-07-09T11:25:10;100720.84;;;30.01;37.38
51849;BME280;38952;51.090;-1.832;2023-07-09T11:27:54;100725.00;;;30.22;36.96
51849;BME280;38952;51.090;-1.832;2023-07-09T11:30:28;100716.81;;;30.02;37.41
51849;BME280;38952;51.090;-1.832;2023-07-09T11:32:58;100719.59;;;30.72;36.21
51849;BME280;38952;51.090;-1.832;2023-07-09T11:35:26;100707.50;;;30.72;35.53
51849;BME280;38952;51.090;-1.832;2023-07-09T11:37:55;100719.34;;;30.22;36.63
51849;BME280;38952;51.090;-1.832;2023-07-09T11:40:24;100719.59;;;30.65;35.55
51849;BME280;38952;51.090;-1.832;2023-07-09T11:42:58;100717.44;;;30.40;35.56
51849;BME280;38952;51.090;-1.832;2023-07-09T11:45:42;100722.78;;;29.07;36.38
51849;BME280;38952;51.090;-1.832;2023-07-09T11:50:50;100723.22;;;26.99;40.96
51849;BME280;38952;51.090;-1.832;2023-07-09T11:55:46;100718.50;;;25.77;43.91
51849;BME280;38952;51.090;-1.832;2023-07-09T11:58:15;100718.00;;;24.83;45.62
51849;BME280;38952;51.090;-1.832;2023-07-09T12:00:43;100712.06;;;24.44;46.88
51849;BME280;38952;51.090;-1.832;2023-07-09T12:03:15;100713.81;;;25.65;45.76
51849;BME280;38952;51.090;-1.832;2023-07-09T12:05:49;100708.34;;;27.18;40.64
51849;BME280;38952;51.090;-1.832;2023-07-09T12:08:16;100705.75;;;27.52;40.07
51849;BME280;38952;51.090;-1.832;2023-07-09T12:10:42;100706.38;;;29.13;39.25
51849;BME280;38952;51.090;-1.832;2023-07-09T12:13:11;100714.34;;;30.71;35.73
51849;BME280;38952;51.090;-1.832;2023-07-09T12:15:39;100714.91;;;32.28;31.38
51849;BME280;38952;51.090;-1.832;2023-07-09T12:18:12;100714.94;;;31.84;31.85
51849;BME280;38952;51.090;-1.832;2023-07-09T12:20:37;100711.38;;;34.03;29.99
51849;BME280;38952;51.090;-1.832;2023-07-09T12:25:48;100711.81;;;36.23;26.08
51849;BME280;38952;51.090;-1.832;2023-07-09T12:28:15;100700.19;;;33.88;27.64
51849;BME280;38952;51.090;-1.832;2023-07-09T12:30:45;100704.41;;;32.25;30.95
51849;BME280;38952;51.090;-1.832;2023-07-09T12:33:15;100703.06;;;33.32;29.78
51849;BME280;38952;51.090;-1.832;2023-07-09T12:35:41;100711.09;;;34.32;28.15
51849;BME280;38952;51.090;-1.832;2023-07-09T12:38:17;100706.31;;;33.31;30.09
51849;BME280;38952;51.090;-1.832;2023-07-09T12:40:43;100701.19;;;34.78;28.91
51849;BME280;38952;51.090;-1.832;2023-07-09T12:43:10;100694.25;;;35.10;26.71
51849;BME280;38952;51.090;-1.832;2023-07-09T12:45:36;100681.16;;;34.23;29.20
51849;BME280;38952;51.090;-1.832;2023-07-09T12:48:02;100687.41;;;37.52;25.26
51849;BME280;38952;51.090;-1.832;2023-07-09T12:50:33;100690.81;;;39.67;23.75
51849;BME280;38952;51.090;-1.832;2023-07-09T12:53:19;100685.31;;;40.08;21.26
51849;BME280;38952;51.090;-1.832;2023-07-09T12:55:48;100680.69;;;39.02;22.67
51849;BME280;38952;51.090;-1.832;2023-07-09T12:58:23;100680.88;;;38.43;23.36
51849;BME280;38952;51.090;-1.832;2023-07-09T13:00:52;100678.81;;;40.07;21.69
51849;BME280;38952;51.090;-1.832;2023-07-09T13:03:20;100680.34;;;39.86;22.00
51849;BME280;38952;51.090;-1.832;2023-07-09T13:05:58;100676.66;;;39.51;22.01
51849;BME280;38952;51.090;-1.832;2023-07-09T13:08:26;100670.81;;;38.09;23.94
51849;BME280;38952;51.090;-1.832;2023-07-09T13:10:51;100663.47;;;36.80;25.29
51849;BME280;38952;51.090;-1.832;2023-07-09T13:13:20;100661.25;;;38.16;23.82
51849;BME280;38952;51.090;-1.832;2023-07-09T13:15:52;100655.91;;;37.88;24.66
51849;BME280;38952;51.090;-1.832;2023-07-09T13:18:23;100658.72;;;38.60;23.06
51849;BME280;38952;51.090;-1.832;2023-07-09T13:20:50;100654.59;;;36.17;25.45
51849;BME280;38952;51.090;-1.832;2023-07-09T13:23:25;100645.44;;;34.30;27.67
51849;BME280;38952;51.090;-1.832;2023-07-09T13:25:51;100653.16;;;34.25;28.17
51849;BME280;38952;51.090;-1.832;2023-07-09T13:30:48;100643.31;;;35.94;26.27